Time;durP1;ratioP1;P1;durP2;ratioP2;P2;SDS_P1;SDS_P2;PMS_P1;PMS_P2;Temp;Humidity;BMP_temperature;BMP_pressure;BME280_temperature;BME280_humidity;BME280_pressure;Samples;Min_cycle;Max_cycle;Signal;HPM_P1;HPM_P2
2023/08/05 00:01:13;;;;;;;1.85;1.70;;;;;;;24.40;48.94;101708.72;5045861;28;20048;-70
2023/08/05 00:03:38;;;;;;;1.88;1.70;;;;;;;24.39;48.67;101701.75;5049687;28;20040;-70
2023/08/05 00:06:04;;;;;;;2.60;1.70;;;;;;;24.39;48.85;101693.78;5050903;28;20478;-70
2023/08/05 00:08:29;;;;;;;1.73;1.60;;;;;;;24.40;48.91;101696.25;5053733;28;20070;-70
2023/08/05 00:10:54;;;;;;;1.85;1.70;;;;;;;24.39;48.78;101697.25;5060760;28;20040;-70
2023/08/05 00:13:20;;;;;;;1.98;1.77;;;;;;;24.39;48.71;101702.56;5054915;28;21086;-70
2023/08/05 00:15:46;;;;;;;2.10;1.90;;;;;;;24.38;48.89;101706.25;5051982;28;20040;-71
2023/08/05 00:18:11;;;;;;;1.92;1.83;;;;;;;24.37;48.70;101701.13;5049368;28;20041;-72
2023/08/05 00:20:37;;;;;;;1.73;1.58;;;;;;;24.39;48.85;101701.75;5049288;28;20093;-71
2023/08/05 00:23:03;;;;;;;1.80;1.65;;;;;;;24.38;48.58;101700.09;5052822;28;20142;-71
2023/08/05 00:25:28;;;;;;;1.60;1.50;;;;;;;24.34;48.79;101688.19;5044833;28;20040;-72
2023/08/05 00:27:54;;;;;;;1.90;1.70;;;;;;;24.37;48.74;101685.97;5047708;28;20114;-72
2023/08/05 00:30:19;;;;;;;2.05;1.75;;;;;;;24.39;48.86;101681.28;5054685;28;20052;-72
2023/08/05 00:32:45;;;;;;;1.70;1.60;;;;;;;24.35;48.89;101688.00;5048435;28;20750;-72
2023/08/05 00:35:11;;;;;;;1.73;1.63;;;;;;;24.38;48.90;101689.47;5049817;28;20036;-70
2023/08/05 00:37:37;;;;;;;1.70;1.60;;;;;;;24.38;48.85;101684.13;5049114;28;20043;-71
2023/08/05 00:40:05;;;;;;;1.88;1.77;;;;;;;24.28;48.84;101673.78;5048666;28;20043;-71
2023/08/05 00:42:30;;;;;;;1.75;1.42;;;;;;;24.32;48.79;101683.06;5047765;28;20390;-70
2023/08/05 00:44:56;;;;;;;2.72;2.00;;;;;;;24.34;48.64;101673.03;5050821;28;20036;-71
2023/08/05 00:47:21;;;;;;;1.90;1.75;;;;;;;24.27;48.85;101658.00;5031801;28;20037;-71
2023/08/05 00:49:51;;;;;;;1.92;1.73;;;;;;;24.34;48.90;101664.25;5048395;28;20031;-71
2023/08/05 00:52:20;;;;;;;1.92;1.77;;;;;;;24.31;48.65;101660.13;5069864;28;20048;-72
2023/08/05 00:54:46;;;;;;;1.85;1.70;;;;;;;24.01;48.93;101619.44;5051944;28;20039;-71
2023/08/05 00:57:12;;;;;;;3.30;1.77;;;;;;;24.27;48.81;101658.81;5053281;28;20036;-71
2023/08/05 00:59:38;;;;;;;1.92;1.83;;;;;;;24.32;48.86;101656.44;5044047;28;20067;-72
2023/08/05 01:02:04;;;;;;;2.00;1.80;;;;;;;24.30;48.84;101658.47;5050240;28;20506;-71
2023/08/05 01:04:32;;;;;;;1.92;1.48;;;;;;;24.29;48.78;101654.16;5053291;28;20044;-72
2023/08/05 01:06:58;;;;;;;2.05;1.85;;;;;;;24.32;48.71;101650.31;5047140;28;20036;-71
2023/08/05 01:09:25;;;;;;;1.85;1.60;;;;;;;24.28;48.85;101647.16;5047904;28;20045;-71
2023/08/05 01:11:50;;;;;;;1.92;1.73;;;;;;;24.29;48.72;101643.53;5048660;28;20032;-71
2023/08/05 01:14:16;;;;;;;1.65;1.55;;;;;;;24.26;48.45;101640.38;5047677;28;20639;-73
2023/08/05 01:16:44;;;;;;;1.92;1.55;;;;;;;24.30;48.64;101642.50;5075838;27;20086;-73
2023/08/05 01:19:29;;;;;;;3.13;1.88;;;;;;;24.27;48.81;101634.06;5049862;28;20033;-71
2023/08/05 01:22:07;;;;;;;1.90;1.80;;;;;;;24.28;48.81;101638.34;5049116;28;20044;-72
2023/08/05 01:25:03;;;;;;;1.70;1.60;;;;;;;24.29;48.72;101642.69;5048114;28;20709;-73
2023/08/05 01:27:30;;;;;;;1.83;1.40;;;;;;;24.18;48.71;101633.34;5050694;28;20443;-72
2023/08/05 01:29:56;;;;;;;2.05;1.80;;;;;;;24.02;48.79;101607.78;5050811;28;20032;-71
2023/08/05 01:32:22;;;;;;;1.80;1.70;;;;;;;24.23;48.83;101648.72;5040921;28;20067;-71
2023/08/05 01:34:48;;;;;;;2.90;1.90;;;;;;;24.20;48.86;101641.94;5046651;28;20029;-69
2023/08/05 01:37:14;;;;;;;2.00;1.70;;;;;;;24.16;48.79;101638.03;5045295;28;20478;-72
2023/08/05 01:39:39;;;;;;;2.60;2.00;;;;;;;24.29;48.78;101654.16;5045704;28;20052;-71
2023/08/05 01:42:05;;;;;;;1.70;1.60;;;;;;;24.27;48.78;101642.03;5078775;27;20040;-73
2023/08/05 01:44:31;;;;;;;1.75;1.60;;;;;;;24.23;48.68;101641.56;5043009;28;20036;-72
2023/08/05 01:46:56;;;;;;;2.15;1.92;;;;;;;24.26;48.68;101646.53;5029482;28;20036;-71
2023/08/05 01:49:23;;;;;;;1.98;1.80;;;;;;;24.25;48.74;101644.88;5079629;28;20120;-71
2023/08/05 01:51:49;;;;;;;1.50;1.38;;;;;;;24.29;48.58;101645.34;5030308;28;21469;-71
2023/08/05 01:54:16;;;;;;;2.03;1.83;;;;;;;24.26;48.66;101638.56;5051147;28;20063;-71
2023/08/05 01:56:41;;;;;;;2.58;2.05;;;;;;;24.26;48.72;101635.88;5049747;28;20399;-70
2023/08/05 01:59:07;;;;;;;1.50;1.40;;;;;;;24.15;48.72;101623.06;5081616;27;20055;-70
2023/08/05 02:01:42;;;;;;;1.63;1.52;;;;;;;24.26;48.66;101640.38;5047897;28;20040;-70
2023/08/05 02:04:08;;;;;;;1.98;1.73;;;;;;;24.24;48.67;101629.94;5035908;28;20130;-72
2023/08/05 02:06:33;;;;;;;2.25;1.80;;;;;;;24.16;48.71;101619.41;5049629;28;20041;-71
2023/08/05 02:08:59;;;;;;;2.17;1.50;;;;;;;24.25;48.54;101630.75;5051672;28;20049;-72
2023/08/05 02:11:24;;;;;;;2.47;2.13;;;;;;;24.17;48.79;101623.69;5053462;28;20069;-71
2023/08/05 02:13:50;;;;;;;1.58;1.40;;;;;;;24.18;48.72;101621.88;5048153;28;20036;-71
2023/08/05 02:16:15;;;;;;;1.75;1.65;;;;;;;24.23;48.66;101625.59;5046962;28;20044;-71
2023/08/05 02:18:40;;;;;;;1.45;1.35;;;;;;;24.22;48.91;101618.63;5047007;28;20056;-72
2023/08/05 02:21:06;;;;;;;2.00;1.80;;;;;;;24.23;48.68;101620.28;5048619;28;20414;-72
2023/08/05 02:23:32;;;;;;;3.08;2.17;;;;;;;24.22;48.78;101623.94;5049432;28;20029;-71
2023/08/05 02:25:57;;;;;;;1.73;1.63;;;;;;;24.21;48.62;101632.13;5047862;28;20056;-72
2023/08/05 02:28:22;;;;;;;2.00;1.80;;;;;;;24.22;48.67;101625.78;5049238;28;20041;-71
2023/08/05 02:30:48;;;;;;;2.35;1.80;;;;;;;24.19;48.69;101619.00;5045870;28;20040;-71
2023/08/05 02:33:13;;;;;;;1.70;1.60;;;;;;;24.20;48.84;101619.84;5047443;28;21824;-72
2023/08/05 02:35:39;;;;;;;1.70;1.60;;;;;;;24.21;48.54;101621.47;5048547;28;20057;-71
2023/08/05 02:38:04;;;;;;;2.00;1.63;;;;;;;24.22;48.69;101615.16;5051488;28;20059;-71
2023/08/05 02:40:33;;;;;;;2.15;1.77;;;;;;;24.18;48.65;101613.88;5046134;28;20032;-71
2023/08/05 02:43:00;;;;;;;2.17;1.92;;;;;;;24.18;48.75;101620.03;5029864;28;20503;-71
2023/08/05 02:45:25;;;;;;;1.98;1.88;;;;;;;24.17;48.94;101618.38;5048456;28;20084;-72
2023/08/05 02:47:51;;;;;;;2.10;1.67;;;;;;;24.18;48.59;101629.84;5045409;28;20048;-71
2023/08/05 02:50:16;;;;;;;1.70;1.60;;;;;;;24.16;48.56;101637.19;5043548;28;20045;-71
2023/08/05 02:52:42;;;;;;;1.60;1.48;;;;;;;24.16;48.80;101631.88;5042423;28;20047;-72
2023/08/05 02:55:08;;;;;;;2.03;1.85;;;;;;;24.17;48.79;101639.66;5047957;28;20047;-71
2023/08/05 02:57:33;;;;;;;2.42;1.92;;;;;;;24.14;48.74;101634.72;5049295;28;20032;-71
2023/08/05 02:59:59;;;;;;;1.73;1.63;;;;;;;24.14;48.64;101628.59;5043722;28;20671;-72
2023/08/05 03:02:24;;;;;;;2.30;1.70;;;;;;;24.13;48.88;101627.75;5048562;28;20434;-71
2023/08/05 03:04:53;;;;;;;3.22;1.83;;;;;;;24.15;48.61;101625.72;5044981;28;20125;-71
2023/08/05 03:07:19;;;;;;;1.75;1.65;;;;;;;24.13;48.74;101627.75;5079464;27;20048;-72
2023/08/05 03:09:45;;;;;;;2.20;1.70;;;;;;;24.14;48.60;101629.41;5046754;28;20032;-72
2023/08/05 03:12:11;;;;;;;2.20;1.60;;;;;;;24.13;48.65;101630.44;5077927;28;20048;-72
2023/08/05 03:14:36;;;;;;;1.73;1.63;;;;;;;23.89;48.89;101588.22;5058040;28;20113;-72
2023/08/05 03:17:05;;;;;;;1.80;1.70;;;;;;;24.09;48.80;101622.00;5053739;28;20793;-71
2023/08/05 03:19:31;;;;;;;1.73;1.60;;;;;;;24.10;48.77;101617.50;5051826;28;20052;-71
2023/08/05 03:21:57;;;;;;;2.13;1.63;;;;;;;24.11;48.70;101624.47;5049102;28;20790;-72
2023/08/05 03:24:23;;;;;;;2.00;1.85;;;;;;;24.12;48.68;101620.78;5076637;27;20043;-72
2023/08/05 03:26:51;;;;;;;1.98;1.83;;;;;;;24.12;48.56;101618.13;5047864;28;20560;-70
2023/08/05 03:29:17;;;;;;;1.75;1.65;;;;;;;23.95;48.65;101601.59;5054809;28;20048;-72
2023/08/05 03:31:43;;;;;;;1.88;1.77;;;;;;;24.08;48.62;101620.34;5049198;28;20035;-71
2023/08/05 03:34:09;;;;;;;1.88;1.75;;;;;;;24.10;48.60;101621.00;5052081;28;20036;-71
2023/08/05 03:36:36;;;;;;;1.83;1.70;;;;;;;24.03;48.79;101612.09;5087206;27;20114;-72
2023/08/05 03:39:03;;;;;;;1.75;1.63;;;;;;;24.07;48.64;101618.72;5049060;28;20049;-71
2023/08/05 03:41:29;;;;;;;2.65;1.70;;;;;;;24.09;48.67;101618.50;5047842;28;20044;-71
2023/08/05 03:43:54;;;;;;;2.28;2.03;;;;;;;24.07;48.58;101618.72;5050408;28;20053;-72
2023/08/05 03:46:20;;;;;;;3.05;1.80;;;;;;;24.06;48.72;101622.38;5080634;27;20117;-70
2023/08/05 03:48:46;;;;;;;1.60;1.50;;;;;;;24.07;48.71;101624.03;5058592;28;20485;-71
2023/08/05 03:51:11;;;;;;;1.63;1.52;;;;;;;24.06;48.63;101619.72;5055803;28;20398;-71
2023/08/05 03:53:37;;;;;;;1.98;1.60;;;;;;;24.06;48.51;101625.03;5057917;28;20041;-72
2023/08/05 03:56:06;;;;;;;2.58;1.70;;;;;;;24.01;48.84;101618.63;5046344;28;20037;-71
2023/08/05 03:58:33;;;;;;;2.03;1.83;;;;;;;24.07;48.73;101612.56;5056526;28;20154;-72
2023/08/05 04:01:00;;;;;;;1.92;1.58;;;;;;;24.02;48.53;101610.44;5082556;27;20593;-71
2023/08/05 04:03:26;;;;;;;1.75;1.65;;;;;;;24.06;48.67;101603.75;5056303;28;20024;-70
2023/08/05 04:05:51;;;;;;;1.70;1.60;;;;;;;24.04;48.64;101600.44;5051795;28;20044;-70
2023/08/05 04:08:18;;;;;;;1.80;1.70;;;;;;;24.02;48.73;101604.31;5045142;28;20087;-71
2023/08/05 04:10:43;;;;;;;1.77;1.67;;;;;;;24.02;48.75;101596.31;5052326;28;20033;-70
2023/08/05 04:13:11;;;;;;;1.90;1.80;;;;;;;24.03;48.72;101598.78;5037645;28;20033;-72
2023/08/05 04:15:38;;;;;;;2.13;1.93;;;;;;;23.99;48.54;101572.75;5078759;27;20090;-70
2023/08/05 04:18:06;;;;;;;1.90;1.80;;;;;;;24.04;48.53;101575.66;5048383;28;20895;-72
2023/08/05 04:20:34;;;;;;;1.80;1.70;;;;;;;24.06;48.58;101568.34;5053826;28;20101;-71
2023/08/05 04:23:00;;;;;;;1.45;1.35;;;;;;;24.04;48.47;101567.69;5079430;27;20043;-70
2023/08/05 04:25:26;;;;;;;2.13;1.92;;;;;;;24.03;48.67;101566.88;5037703;28;20048;-70
2023/08/05 04:27:52;;;;;;;1.70;1.60;;;;;;;24.04;48.60;101557.88;5053272;28;20051;-71
2023/08/05 04:30:17;;;;;;;1.90;1.75;;;;;;;24.02;48.67;101549.25;5050823;28;20132;-70
2023/08/05 04:32:43;;;;;;;1.60;1.50;;;;;;;24.01;48.70;101552.94;5048288;28;20047;-71
2023/08/05 04:35:08;;;;;;;1.73;1.63;;;;;;;24.03;48.54;101547.41;5075629;27;20037;-72
2023/08/05 04:37:34;;;;;;;1.95;1.77;;;;;;;24.03;48.54;101550.06;5049140;28;20153;-71
2023/08/05 04:39:59;;;;;;;2.20;1.90;;;;;;;24.04;48.51;101547.22;5051098;28;20087;-70
2023/08/05 04:42:25;;;;;;;1.85;1.70;;;;;;;24.01;48.58;101542.28;5045209;28;20105;-71
2023/08/05 04:44:51;;;;;;;1.73;1.63;;;;;;;24.00;48.68;101534.50;5047693;28;20395;-70
2023/08/05 04:47:17;;;;;;;1.90;1.70;;;;;;;24.02;48.65;101532.47;5051918;28;20047;-72
2023/08/05 04:49:44;;;;;;;2.00;1.65;;;;;;;24.03;48.56;101529.63;5051644;28;20125;-71
2023/08/05 04:52:10;;;;;;;1.83;1.73;;;;;;;24.00;48.30;101527.34;5052257;28;22082;-71
2023/08/05 04:54:40;;;;;;;1.85;1.75;;;;;;;23.98;48.55;101532.03;5050350;28;20037;-70
2023/08/05 04:57:06;;;;;;;2.63;1.77;;;;;;;24.05;48.50;101534.75;5047303;28;20059;-72
2023/08/05 04:59:32;;;;;;;2.42;1.73;;;;;;;24.05;48.72;101532.09;5051788;28;20029;-72
2023/08/05 05:01:58;;;;;;;1.77;1.67;;;;;;;24.00;48.57;101523.84;5047909;28;20052;-72
2023/08/05 05:04:23;;;;;;;2.05;1.80;;;;;;;24.02;48.57;101527.97;5051594;28;20044;-72
2023/08/05 05:06:49;;;;;;;1.90;1.70;;;;;;;23.97;48.47;101524.25;5049781;28;20041;-70
2023/08/05 05:09:14;;;;;;;1.80;1.52;;;;;;;24.03;48.50;101534.13;5049824;28;20037;-71
2023/08/05 05:11:40;;;;;;;1.75;1.65;;;;;;;24.01;48.45;101539.63;5046670;28;20040;-71
2023/08/05 05:14:06;;;;;;;2.30;1.80;;;;;;;24.01;48.51;101522.84;5057161;28;20727;-71
2023/08/05 05:16:32;;;;;;;1.90;1.80;;;;;;;23.97;48.73;101522.41;5048275;28;20127;-72
2023/08/05 05:18:58;;;;;;;2.20;1.73;;;;;;;24.01;48.46;101525.50;5049584;28;20040;-72
2023/08/05 05:21:23;;;;;;;1.95;1.85;;;;;;;24.01;48.44;101517.53;5056298;28;20502;-71
2023/08/05 05:23:49;;;;;;;2.65;2.03;;;;;;;23.91;48.42;101499.25;5042206;28;20040;-71
2023/08/05 05:26:14;;;;;;;1.83;1.63;;;;;;;23.99;48.59;101515.06;5051322;28;20043;-71
2023/08/05 05:28:41;;;;;;;3.58;1.60;;;;;;;24.03;48.40;101510.16;5048237;28;20664;-71
2023/08/05 05:31:06;;;;;;;2.28;2.00;;;;;;;24.02;48.48;101497.88;5050696;28;20482;-72
2023/08/05 05:33:32;;;;;;;3.22;1.80;;;;;;;24.03;48.39;101497.69;5043863;28;20099;-72
2023/08/05 05:35:57;;;;;;;2.45;1.80;;;;;;;24.02;48.36;101487.25;5047076;28;20056;-72
2023/08/05 05:38:23;;;;;;;2.25;1.95;;;;;;;24.03;48.46;101486.22;5051597;28;20075;-70
2023/08/05 05:40:48;;;;;;;1.90;1.80;;;;;;;23.95;48.36;101478.41;5048939;28;20040;-72
2023/08/05 05:43:14;;;;;;;1.67;1.58;;;;;;;23.92;48.55;101474.28;5044582;28;20998;-72
2023/08/05 05:45:40;;;;;;;2.75;2.20;;;;;;;24.03;48.24;101497.69;5054393;28;20039;-71
2023/08/05 05:48:06;;;;;;;1.60;1.50;;;;;;;24.04;48.30;101498.50;5039914;28;20463;-72
2023/08/05 05:50:31;;;;;;;1.60;1.50;;;;;;;24.03;48.38;101495.03;5046359;28;20032;-71
2023/08/05 05:52:57;;;;;;;3.42;2.03;;;;;;;24.04;48.38;101499.34;5050272;28;20040;-71
2023/08/05 05:55:22;;;;;;;1.88;1.77;;;;;;;24.05;48.41;101500.97;5048164;28;20056;-72
2023/08/05 05:57:48;;;;;;;2.33;1.80;;;;;;;24.02;48.37;101484.59;5054159;28;20039;-71
2023/08/05 06:00:14;;;;;;;2.15;1.60;;;;;;;24.02;48.57;101489.91;5044918;28;20056;-71
2023/08/05 06:02:41;;;;;;;1.55;1.45;;;;;;;24.06;48.28;101491.19;5046114;28;21417;-71
2023/08/05 06:05:07;;;;;;;1.80;1.70;;;;;;;24.04;48.30;101494.00;5080318;28;20040;-71
2023/08/05 06:07:33;;;;;;;1.98;1.75;;;;;;;24.04;48.41;101491.34;5048702;28;20056;-71
2023/08/05 06:09:58;;;;;;;2.00;1.90;;;;;;;24.05;48.45;101497.50;5050959;28;20032;-72
2023/08/05 06:12:27;;;;;;;1.70;1.60;;;;;;;24.03;48.30;101492.38;5045557;28;20733;-72
2023/08/05 06:14:53;;;;;;;1.80;1.70;;;;;;;24.05;48.24;101492.19;5053679;28;20552;-70
2023/08/05 06:17:19;;;;;;;2.17;1.60;;;;;;;24.02;48.39;101482.75;5071661;28;20037;-71
2023/08/05 06:19:44;;;;;;;2.00;1.90;;;;;;;24.03;48.28;101487.06;5050763;28;20041;-72
2023/08/05 06:22:10;;;;;;;1.73;1.40;;;;;;;24.04;48.30;101488.69;5054114;28;20114;-71
2023/08/05 06:24:35;;;;;;;1.85;1.75;;;;;;;24.08;48.32;101483.84;5050386;28;20755;-71
2023/08/05 06:27:01;;;;;;;2.70;2.05;;;;;;;24.03;48.47;101484.38;5050220;28;20390;-72
2023/08/05 06:29:26;;;;;;;1.70;1.60;;;;;;;23.97;48.24;101471.03;5051286;28;20083;-72
2023/08/05 06:31:52;;;;;;;1.70;1.60;;;;;;;24.04;48.09;101479.88;5050839;28;20050;-72
2023/08/05 06:34:20;;;;;;;1.70;1.60;;;;;;;24.03;48.05;101484.38;5048971;28;20402;-72
2023/08/05 06:36:45;;;;;;;1.75;1.60;;;;;;;24.06;48.07;101488.53;5051583;28;20063;-72
2023/08/05 06:39:11;;;;;;;1.80;1.70;;;;;;;24.07;47.96;101485.69;5050759;28;20071;-72
2023/08/05 06:41:36;;;;;;;1.67;1.58;;;;;;;24.06;48.20;101491.19;5053632;28;20320;-73
2023/08/05 06:44:02;;;;;;;1.70;1.60;;;;;;;24.03;48.32;101491.53;5052742;28;20059;-71
2023/08/05 06:46:27;;;;;;;1.80;1.70;;;;;;;24.03;48.20;101483.56;5052635;28;21011;-71
2023/08/05 06:48:53;;;;;;;2.00;1.80;;;;;;;24.07;48.05;101488.34;5054623;28;20037;-71
2023/08/05 06:51:18;;;;;;;2.30;1.92;;;;;;;24.07;48.20;101490.16;5053318;28;20487;-71
2023/08/05 06:53:44;;;;;;;1.63;1.45;;;;;;;24.02;48.26;101468.63;5056030;28;20129;-70
2023/08/05 06:56:10;;;;;;;1.50;1.40;;;;;;;24.10;48.19;101476.47;5051624;28;20667;-69
2023/08/05 06:58:35;;;;;;;1.70;1.60;;;;;;;24.07;48.14;101472.38;5051947;28;20087;-70
2023/08/05 07:01:01;;;;;;;2.00;1.88;;;;;;;24.10;48.17;101476.47;5058863;28;20040;-70
2023/08/05 07:03:27;;;;;;;2.03;1.85;;;;;;;24.09;48.17;101473.00;5053700;28;20117;-70
2023/08/05 07:05:56;;;;;;;1.63;1.52;;;;;;;24.03;48.11;101464.94;5058742;28;20051;-70
2023/08/05 07:08:25;;;;;;;2.03;1.80;;;;;;;24.10;48.36;101479.16;5055696;28;20045;-70
2023/08/05 07:10:58;;;;;;;1.70;1.60;;;;;;;24.10;48.42;101476.47;5054134;28;20479;-71
2023/08/05 07:13:27;;;;;;;2.15;1.80;;;;;;;24.10;48.04;101471.16;5047029;28;20513;-71
2023/08/05 07:15:59;;;;;;;1.63;1.52;;;;;;;24.11;48.07;101483.44;5052936;28;20036;-71
2023/08/05 07:18:25;;;;;;;1.63;1.52;;;;;;;24.02;48.17;101474.75;5051860;28;20036;-71
2023/08/05 07:20:51;;;;;;;2.08;1.98;;;;;;;23.90;48.18;101447.06;5051085;28;20074;-70
2023/08/05 07:23:17;;;;;;;1.88;1.73;;;;;;;24.11;48.04;101481.59;5053616;28;20043;-72
2023/08/05 07:25:42;;;;;;;2.45;1.83;;;;;;;24.10;48.19;101479.16;5050959;28;20064;-72
2023/08/05 07:28:08;;;;;;;1.70;1.60;;;;;;;24.13;48.09;101484.06;5047560;28;20086;-71
2023/08/05 07:30:33;;;;;;;2.35;1.73;;;;;;;24.08;48.24;101481.19;5078300;27;20045;-70
2023/08/05 07:32:59;;;;;;;2.13;1.80;;;;;;;23.99;48.32;101469.84;5052364;28;20067;-72
2023/08/05 07:35:28;;;;;;;2.00;1.45;;;;;;;24.09;48.21;101480.97;5050508;28;20051;-70
2023/08/05 07:37:55;;;;;;;3.13;1.75;;;;;;;24.02;48.00;101460.63;5050918;28;20090;-71
2023/08/05 07:40:22;;;;;;;2.00;1.80;;;;;;;24.11;48.15;101470.16;5048419;28;20039;-71
2023/08/05 07:42:49;;;;;;;1.95;1.70;;;;;;;24.10;48.12;101458.69;5046535;28;20049;-70
2023/08/05 07:45:17;;;;;;;1.58;1.48;;;;;;;24.13;48.08;101465.44;5051003;28;20143;-70
2023/08/05 07:47:44;;;;;;;1.90;1.80;;;;;;;24.04;47.96;101448.78;5050861;28;20070;-69
2023/08/05 07:50:10;;;;;;;1.60;1.50;;;;;;;24.06;48.06;101451.28;5045119;28;20043;-69
2023/08/05 07:52:39;;;;;;;2.53;1.88;;;;;;;24.18;47.84;101467.53;5051823;28;20045;-70
2023/08/05 07:55:05;;;;;;;1.90;1.70;;;;;;;24.13;47.92;101457.47;5045940;28;20044;-69
2023/08/05 07:57:31;;;;;;;2.65;1.75;;;;;;;24.13;48.00;101449.47;5043911;28;20826;-69
2023/08/05 07:59:57;;;;;;;2.28;1.92;;;;;;;24.11;48.16;101451.53;5046249;28;20057;-71
2023/08/05 08:02:24;;;;;;;2.55;1.60;;;;;;;24.10;48.12;101453.34;5052225;28;20094;-69
2023/08/05 08:04:54;;;;;;;2.63;1.90;;;;;;;24.01;47.90;101433.22;5051003;28;20039;-69
2023/08/05 08:07:20;;;;;;;2.13;1.88;;;;;;;24.15;47.91;101441.31;5050253;28;20631;-71
2023/08/05 08:09:46;;;;;;;2.50;1.73;;;;;;;24.16;47.76;101438.44;5049579;28;20532;-69
2023/08/05 08:12:11;;;;;;;1.85;1.70;;;;;;;24.16;47.82;101424.31;5045996;28;20047;-70
2023/08/05 08:14:37;;;;;;;2.50;1.60;;;;;;;24.17;47.69;101431.28;5051390;28;20099;-70
2023/08/05 08:17:02;;;;;;;2.28;1.85;;;;;;;24.17;47.85;101426.78;5042694;28;20093;-71
2023/08/05 08:19:28;;;;;;;2.65;1.88;;;;;;;24.17;47.58;101429.44;5044456;28;20106;-70
2023/08/05 08:21:53;;;;;;;1.90;1.58;;;;;;;24.17;47.71;101428.63;5045529;28;20036;-70
2023/08/05 08:24:19;;;;;;;3.22;1.65;;;;;;;24.19;47.83;101431.91;5046052;28;21839;-70
2023/08/05 08:26:44;;;;;;;1.70;1.60;;;;;;;24.17;47.78;101433.94;5042546;28;20062;-71
2023/08/05 08:29:10;;;;;;;1.48;1.38;;;;;;;24.19;47.67;101426.59;5043982;28;20862;-70
2023/08/05 08:31:36;;;;;;;2.10;1.90;;;;;;;24.16;47.89;101422.47;5046669;28;20040;-71
2023/08/05 08:34:01;;;;;;;2.10;1.80;;;;;;;24.18;47.59;101416.97;5044481;28;20045;-70
2023/08/05 08:36:26;;;;;;;2.42;1.92;;;;;;;24.16;47.99;101422.47;5050670;28;20032;-69
2023/08/05 08:38:52;;;;;;;2.80;2.00;;;;;;;24.06;47.89;101406.88;5045710;28;20107;-71
2023/08/05 08:41:18;;;;;;;2.78;1.90;;;;;;;24.09;47.89;101413.66;5048358;28;20049;-69
2023/08/05 08:43:44;;;;;;;2.15;1.75;;;;;;;24.13;47.92;101412.22;5046200;28;20135;-71
2023/08/05 08:46:12;;;;;;;2.47;1.90;;;;;;;24.17;47.74;101404.69;5046491;28;20059;-73
2023/08/05 08:48:40;;;;;;;4.45;2.28;;;;;;;24.16;47.72;101406.50;5053112;28;20128;-70
2023/08/05 08:51:07;;;;;;;2.05;1.80;;;;;;;24.10;47.75;101394.81;5053101;28;20107;-71
2023/08/05 08:53:33;;;;;;;3.38;1.85;;;;;;;24.18;47.30;101396.50;5084768;27;20081;-71
2023/08/05 08:55:59;;;;;;;2.85;1.63;;;;;;;24.18;47.52;101401.00;5053543;28;20075;-72
2023/08/05 08:58:24;;;;;;;2.90;1.75;;;;;;;24.17;47.49;101383.38;5054839;28;20110;-70
2023/08/05 09:00:50;;;;;;;3.17;1.90;;;;;;;24.20;47.36;101370.50;5047792;28;20070;-73
2023/08/05 09:03:17;;;;;;;3.78;1.98;;;;;;;24.23;47.72;101377.28;5077480;27;20052;-71
2023/08/05 09:05:49;;;;;;;2.58;1.65;;;;;;;24.16;47.67;101365.78;5050855;28;20536;-70
2023/08/05 09:08:15;;;;;;;3.53;1.73;;;;;;;24.21;47.81;101374.00;5045021;28;20045;-71
2023/08/05 09:10:43;;;;;;;1.95;1.70;;;;;;;24.24;47.51;101362.97;5056747;28;20114;-71
2023/08/05 09:13:09;;;;;;;2.15;1.83;;;;;;;24.21;47.79;101368.66;5055977;28;20032;-70
2023/08/05 09:15:39;;;;;;;2.17;1.65;;;;;;;24.25;47.79;101367.28;5057595;28;20517;-70
2023/08/05 09:18:05;;;;;;;1.98;1.48;;;;;;;24.26;47.57;101353.78;5052321;28;20580;-71
2023/08/05 09:20:32;;;;;;;2.55;2.00;;;;;;;24.25;47.49;101340.66;5055554;28;20044;-70
2023/08/05 09:23:03;;;;;;;3.78;1.95;;;;;;;24.27;47.58;101343.94;5052096;28;20044;-71
2023/08/05 09:25:33;;;;;;;2.42;1.55;;;;;;;24.28;47.43;101342.94;5050721;28;20155;-71
2023/08/05 09:28:00;;;;;;;;;;;;;;;24.30;47.60;101338.25;5053517;28;20631;-71
2023/08/05 09:30:26;;;;;;;2.20;2.00;;;;;;;24.24;47.62;101315.91;5048219;28;19978;-72
2023/08/05 09:32:52;;;;;;;1.85;1.65;;;;;;;24.31;47.60;101322.09;5052467;28;20085;-71
2023/08/05 09:35:18;;;;;;;2.35;1.50;;;;;;;24.33;47.39;101317.41;5042432;28;21608;-71
2023/08/05 09:37:51;;;;;;;2.40;1.75;;;;;;;24.33;47.59;101319.22;5045283;28;20052;-74
2023/08/05 09:40:19;;;;;;;2.08;1.88;;;;;;;24.29;47.63;101321.47;5047189;28;20132;-73
2023/08/05 09:42:49;;;;;;;2.15;1.90;;;;;;;24.34;47.39;101315.56;5045175;28;20036;-71
2023/08/05 09:45:15;;;;;;;2.03;1.83;;;;;;;24.07;47.62;101274.66;5051244;28;20526;-72
2023/08/05 09:47:42;;;;;;;2.65;2.00;;;;;;;24.31;47.46;101311.44;5085331;27;20063;-72
2023/08/05 09:50:11;;;;;;;1.90;1.80;;;;;;;24.31;47.31;101311.44;5047948;28;20041;-72
2023/08/05 09:52:39;;;;;;;1.67;1.58;;;;;;;24.34;47.38;101304.91;5047114;28;20043;-72
2023/08/05 09:55:13;;;;;;;2.22;1.80;;;;;;;24.34;47.44;101310.22;5069100;28;20055;-72
2023/08/05 09:57:39;;;;;;;2.40;1.85;;;;;;;24.34;47.40;101308.38;5055633;28;20047;-72
2023/08/05 10:00:12;;;;;;;1.77;1.65;;;;;;;24.37;47.22;101297.34;5048040;28;20048;-71
2023/08/05 10:02:43;;;;;;;2.60;2.00;;;;;;;24.37;47.25;101297.34;5055215;28;21801;-71
2023/08/05 10:05:10;;;;;;;2.15;1.85;;;;;;;24.35;47.46;101298.56;5046456;28;20303;-71
2023/08/05 10:07:44;;;;;;;3.38;1.75;;;;;;;24.35;47.33;101288.72;5051536;28;20032;-72
2023/08/05 10:10:12;;;;;;;1.92;1.60;;;;;;;24.32;47.13;101289.13;5051486;28;20122;-71
2023/08/05 10:12:42;;;;;;;2.13;1.88;;;;;;;24.35;47.21;101293.25;5047113;28;20080;-72
2023/08/05 10:15:13;;;;;;;1.80;1.70;;;;;;;24.29;47.22;101280.72;5045683;28;20037;-72
2023/08/05 10:17:40;;;;;;;2.03;1.52;;;;;;;24.37;46.99;101289.34;5046748;28;20508;-72
2023/08/05 10:20:11;;;;;;;2.15;1.95;;;;;;;24.34;47.28;101283.63;5047885;28;20044;-72
2023/08/05 10:22:38;;;;;;;2.90;1.80;;;;;;;24.28;47.23;101257.78;5051407;28;20120;-71
2023/08/05 10:25:04;;;;;;;1.75;1.60;;;;;;;24.36;47.28;101268.25;5050876;28;20044;-73
2023/08/05 10:27:36;;;;;;;1.85;1.67;;;;;;;24.28;47.39;101253.28;5042514;28;20036;-71
2023/08/05 10:30:07;;;;;;;2.30;1.70;;;;;;;24.36;47.30;101268.25;5050612;28;20037;-71
2023/08/05 10:32:34;;;;;;;1.88;1.77;;;;;;;24.32;47.17;101251.88;5045516;28;20050;-71
2023/08/05 10:35:29;;;;;;;3.47;1.85;;;;;;;24.38;47.20;101255.56;5051679;28;20774;-72
2023/08/05 10:38:21;;;;;;;2.38;1.80;;;;;;;24.34;47.14;101249.84;5052948;28;20032;-71
2023/08/05 10:41:02;;;;;;;2.35;1.92;;;;;;;24.40;46.95;101258.84;5039889;28;20087;-71
2023/08/05 10:43:31;;;;;;;2.10;1.80;;;;;;;24.37;47.07;101251.28;5048170;28;20056;-73
2023/08/05 10:46:06;;;;;;;2.00;1.80;;;;;;;24.31;46.79;101226.28;5049824;28;20140;-72
2023/08/05 10:48:34;;;;;;;2.63;2.08;;;;;;;24.06;47.42;101207.34;5081983;28;20040;-73
2023/08/05 10:51:08;;;;;;;3.13;1.80;;;;;;;24.30;47.25;101237.94;5044270;28;20047;-72
2023/08/05 10:53:34;;;;;;;2.15;1.90;;;;;;;24.27;47.25;101232.19;5044563;28;20052;-72
2023/08/05 10:56:00;;;;;;;4.07;2.00;;;;;;;24.29;47.13;101227.50;5043474;28;20029;-72
2023/08/05 10:58:29;;;;;;;1.40;1.30;;;;;;;24.28;47.31;101224.00;5048872;28;20086;-72
2023/08/05 11:01:03;;;;;;;3.30;1.70;;;;;;;24.29;47.29;101222.19;5041181;28;20064;-72
2023/08/05 11:03:37;;;;;;;3.03;1.70;;;;;;;24.30;47.22;101216.66;5050939;28;20045;-73
2023/08/05 11:06:04;;;;;;;2.00;1.80;;;;;;;24.25;47.32;101210.28;5050793;28;20154;-73
2023/08/05 11:08:32;;;;;;;2.85;2.22;;;;;;;24.26;47.35;101204.75;5043397;28;20032;-73
2023/08/05 11:11:13;;;;;;;2.47;2.00;;;;;;;24.21;47.42;101201.03;5053610;28;20036;-73
2023/08/05 11:13:44;;;;;;;2.47;2.08;;;;;;;24.23;47.12;101197.13;5046480;28;20048;-73
2023/08/05 11:16:11;;;;;;;1.95;1.77;;;;;;;24.24;47.41;101188.16;5086919;28;20116;-73
2023/08/05 11:18:45;;;;;;;2.10;1.90;;;;;;;24.26;47.21;101191.44;5051189;28;20039;-73
2023/08/05 11:21:15;;;;;;;2.03;1.80;;;;;;;24.24;47.44;101196.16;5046659;28;20044;-72
2023/08/05 11:23:42;;;;;;;1.85;1.75;;;;;;;24.28;47.40;101192.06;5044164;28;20136;-69